createdAt,value
2018-07-06T00:01:58.875Z,99.90
2018-07-06T00:04:52.110Z,99.90
2018-07-06T00:07:45.263Z,99.90
2018-07-06T00:10:38.491Z,99.90
2018-07-06T00:13:31.701Z,99.90
2018-07-06T00:16:24.553Z,99.90
2018-07-06T00:19:17.675Z,99.90
2018-07-06T00:22:10.861Z,99.90
2018-07-06T00:25:04.212Z,99.90
2018-07-06T00:27:57.372Z,99.90
2018-07-06T00:30:50.829Z,99.90
2018-07-06T00:33:43.968Z,99.90
2018-07-06T00:36:37.272Z,99.90
2018-07-06T00:39:30.373Z,99.90
2018-07-06T00:42:23.554Z,99.90
2018-07-06T00:45:16.712Z,99.90
2018-07-06T00:48:09.759Z,99.90
2018-07-06T00:51:03.755Z,99.90
2018-07-06T00:53:56.950Z,99.90
2018-07-06T00:56:50.289Z,99.90
2018-07-06T00:59:43.546Z,99.90
2018-07-06T01:02:36.646Z,99.90
2018-07-06T01:05:29.963Z,99.90
2018-07-06T01:08:23.154Z,99.90
2018-07-06T01:11:16.513Z,99.90
2018-07-06T01:14:09.973Z,99.90
2018-07-06T01:17:03.476Z,99.90
2018-07-06T01:19:57.726Z,99.90
2018-07-06T01:22:51.016Z,99.90
2018-07-06T01:25:44.209Z,99.90
2018-07-06T01:28:38.349Z,99.90
2018-07-06T01:31:31.656Z,99.90
2018-07-06T01:34:24.886Z,99.90
2018-07-06T01:37:18.103Z,99.90
2018-07-06T01:40:11.224Z,99.90
2018-07-06T01:43:04.397Z,99.90
2018-07-06T01:45:57.575Z,99.90
2018-07-06T01:48:50.921Z,99.90
2018-07-06T01:51:43.909Z,99.90
2018-07-06T01:54:37.108Z,99.90
2018-07-06T01:57:30.127Z,99.90
2018-07-06T02:00:23.360Z,99.90
2018-07-06T02:03:16.392Z,99.90
2018-07-06T02:06:10.922Z,99.90
2018-07-06T02:09:04.576Z,99.90
2018-07-06T02:11:57.815Z,99.90
2018-07-06T02:14:50.889Z,99.90
2018-07-06T02:17:44.144Z,99.90
2018-07-06T02:20:37.363Z,99.90
2018-07-06T02:23:30.570Z,99.90
2018-07-06T02:26:23.879Z,99.90
2018-07-06T02:29:17.273Z,99.90
2018-07-06T02:32:10.530Z,99.90
2018-07-06T02:35:03.806Z,99.90
2018-07-06T02:37:56.977Z,99.90
2018-07-06T02:40:50.296Z,99.90
2018-07-06T02:43:43.500Z,99.90
2018-07-06T02:46:36.582Z,99.90
2018-07-06T02:49:29.624Z,99.90
2018-07-06T02:52:22.902Z,99.90
2018-07-06T02:55:16.233Z,99.90
2018-07-06T02:58:09.203Z,99.90
2018-07-06T03:03:49.632Z,99.90
2018-07-06T03:06:42.878Z,99.90
2018-07-06T03:09:36.370Z,99.90
2018-07-06T03:12:29.785Z,99.90
2018-07-06T03:15:23.184Z,99.90
2018-07-06T03:18:16.254Z,99.90
2018-07-06T03:21:09.875Z,99.90
2018-07-06T03:24:03.311Z,99.90
2018-07-06T03:26:56.659Z,99.90
2018-07-06T03:29:50.392Z,99.90
2018-07-06T03:32:43.574Z,99.90
2018-07-06T03:35:36.856Z,99.90
2018-07-06T03:38:29.985Z,99.90
2018-07-06T03:41:23.177Z,99.90
2018-07-06T03:44:16.564Z,99.90
2018-07-06T03:47:10.535Z,99.90
2018-07-06T03:50:03.849Z,99.90
2018-07-06T03:52:57.090Z,99.90
2018-07-06T03:55:50.324Z,99.90
2018-07-06T03:58:43.598Z,99.90
2018-07-06T04:01:37.004Z,99.90
2018-07-06T04:04:30.066Z,99.90
2018-07-06T04:07:23.520Z,99.90
2018-07-06T04:10:16.661Z,99.90
2018-07-06T04:13:09.728Z,99.90
2018-07-06T04:16:02.944Z,99.90
2018-07-06T04:19:01.008Z,99.90
2018-07-06T04:21:55.149Z,99.90
2018-07-06T04:24:48.476Z,99.90
2018-07-06T04:27:41.793Z,99.90
2018-07-06T04:30:34.971Z,99.90
2018-07-06T04:33:28.183Z,99.90
2018-07-06T04:36:21.405Z,99.90
2018-07-06T04:39:14.771Z,99.90
2018-07-06T04:42:07.880Z,99.90
2018-07-06T04:45:01.166Z,99.90
2018-07-06T04:47:54.441Z,99.90
2018-07-06T04:50:47.659Z,99.90
2018-07-06T04:53:40.875Z,99.90
2018-07-06T04:56:34.117Z,99.90
2018-07-06T04:59:27.424Z,99.90
2018-07-06T05:02:20.671Z,99.90
2018-07-06T05:05:13.856Z,99.90
2018-07-06T05:08:07.165Z,99.90
2018-07-06T05:11:00.404Z,99.90
2018-07-06T05:13:53.602Z,99.90
2018-07-06T05:16:48.333Z,99.90
2018-07-06T05:19:41.601Z,99.90
2018-07-06T05:22:35.050Z,99.90
2018-07-06T05:25:28.599Z,99.90
2018-07-06T05:28:21.691Z,99.90
2018-07-06T05:31:14.869Z,99.90
2018-07-06T05:34:08.894Z,99.90
2018-07-06T05:37:02.224Z,99.90
2018-07-06T05:39:55.582Z,99.90
2018-07-06T05:42:49.612Z,99.90
2018-07-06T05:45:43.905Z,99.90
2018-07-06T05:48:37.301Z,99.90
2018-07-06T05:51:30.465Z,99.90
2018-07-06T05:54:23.877Z,99.90
2018-07-06T05:57:16.964Z,99.90
2018-07-06T06:00:10.357Z,99.90
2018-07-06T06:03:03.666Z,99.90
2018-07-06T06:05:56.913Z,99.90
2018-07-06T06:08:31.686Z,99.90
2018-07-06T06:11:01.760Z,99.90
2018-07-06T06:13:32.194Z,99.90
2018-07-06T06:16:02.677Z,99.90
2018-07-06T06:18:33.073Z,99.90
2018-07-06T06:21:03.594Z,99.90
2018-07-06T06:23:34.021Z,99.90
2018-07-06T06:26:04.558Z,99.90
2018-07-06T06:28:34.974Z,99.90
2018-07-06T06:31:05.403Z,99.90
2018-07-06T06:33:35.896Z,99.90
2018-07-06T06:36:07.318Z,99.90
2018-07-06T06:38:37.795Z,99.90
2018-07-06T06:41:08.288Z,99.90
2018-07-06T06:43:38.647Z,99.90
2018-07-06T06:46:09.089Z,99.90
2018-07-06T06:48:40.693Z,99.90
2018-07-06T06:51:11.496Z,99.90
2018-07-06T06:53:42.006Z,99.90
2018-07-06T06:56:12.447Z,99.90
2018-07-06T06:58:42.993Z,99.90
2018-07-06T07:01:13.492Z,99.90
2018-07-06T07:03:43.988Z,99.90
2018-07-06T07:06:14.427Z,99.90
2018-07-06T07:11:15.096Z,99.90
2018-07-06T07:13:45.683Z,99.90
2018-07-06T07:16:17.018Z,99.90
2018-07-06T07:18:47.414Z,99.90
2018-07-06T07:21:18.021Z,99.90
2018-07-06T07:23:48.560Z,99.90
2018-07-06T07:26:19.037Z,99.90
2018-07-06T07:28:49.592Z,99.90
2018-07-06T07:33:50.109Z,99.90
2018-07-06T07:36:20.609Z,99.90
2018-07-06T07:38:51.145Z,99.90
2018-07-06T07:41:21.577Z,99.90
2018-07-06T07:43:54.425Z,99.90
2018-07-06T07:46:25.104Z,99.90
2018-07-06T07:48:56.216Z,99.90
2018-07-06T07:52:10.093Z,99.90
2018-07-06T07:54:44.317Z,99.90
2018-07-06T07:57:14.768Z,99.90
2018-07-06T07:59:45.494Z,99.90
2018-07-06T08:02:16.136Z,99.90
2018-07-06T08:04:47.543Z,99.90
2018-07-06T08:07:18.759Z,99.90
2018-07-06T08:09:49.574Z,99.90
2018-07-06T08:12:21.031Z,99.90
2018-07-06T08:14:51.537Z,99.90
2018-07-06T08:17:22.127Z,99.90
2018-07-06T08:19:52.583Z,99.90
2018-07-06T08:22:23.074Z,99.90
2018-07-06T08:24:53.491Z,99.90
2018-07-06T08:27:24.024Z,99.90
2018-07-06T08:29:54.393Z,99.90
2018-07-06T08:32:24.876Z,99.90
2018-07-06T08:35:12.361Z,99.90
2018-07-06T08:38:04.881Z,99.90
2018-07-06T08:40:35.508Z,99.90
2018-07-06T08:43:06.727Z,99.90
2018-07-06T08:45:37.145Z,99.90
2018-07-06T08:48:07.553Z,99.90
2018-07-06T08:53:08.003Z,99.90
2018-07-06T08:55:38.441Z,99.90
2018-07-06T08:58:08.878Z,99.90
2018-07-06T09:00:39.343Z,99.90
2018-07-06T09:03:09.719Z,99.90
2018-07-06T09:05:40.174Z,99.90
2018-07-06T09:08:10.657Z,99.90
2018-07-06T09:10:41.114Z,99.90
2018-07-06T09:13:11.543Z,99.90
2018-07-06T09:15:41.925Z,99.90
2018-07-06T09:18:12.386Z,99.90
2018-07-06T09:23:12.769Z,99.90
2018-07-06T09:25:43.626Z,99.90
2018-07-06T09:28:13.705Z,99.90
2018-07-06T09:30:44.723Z,99.90
2018-07-06T09:33:15.873Z,99.90
2018-07-06T09:35:46.339Z,99.90
2018-07-06T09:38:16.830Z,99.90
2018-07-06T09:40:47.272Z,99.90
2018-07-06T09:43:17.711Z,99.90
2018-07-06T09:45:49.195Z,99.90
2018-07-06T09:48:19.617Z,99.90
2018-07-06T09:50:50.050Z,99.90
2018-07-06T09:53:20.541Z,99.90
2018-07-06T09:55:50.953Z,99.90
2018-07-06T09:58:21.438Z,99.90
2018-07-06T10:00:57.020Z,99.90
2018-07-06T10:03:27.987Z,99.90
2018-07-06T10:05:58.412Z,99.90
2018-07-06T10:08:28.808Z,99.90
2018-07-06T10:10:59.397Z,99.90
2018-07-06T10:13:30.017Z,99.90
2018-07-06T10:16:00.517Z,99.90
2018-07-06T10:18:31.091Z,99.90
2018-07-06T10:21:01.557Z,99.90
2018-07-06T10:23:31.973Z,99.90
2018-07-06T10:26:02.450Z,99.90
2018-07-06T10:33:01.919Z,99.90
2018-07-06T10:35:32.243Z,99.90
2018-07-06T10:38:02.751Z,99.90
2018-07-06T10:40:33.218Z,99.90
2018-07-06T10:43:05.420Z,99.90
2018-07-06T10:45:35.852Z,99.90
2018-07-06T10:48:06.377Z,99.90
2018-07-06T10:50:36.807Z,99.90
2018-07-06T10:53:15.167Z,99.90
2018-07-06T10:55:51.156Z,99.90
2018-07-06T10:58:22.475Z,99.90
2018-07-06T11:00:55.149Z,99.90
2018-07-06T11:03:26.301Z,99.90
2018-07-06T11:05:56.863Z,99.90
2018-07-06T11:08:27.340Z,99.90
2018-07-06T11:10:58.003Z,99.90
2018-07-06T11:13:28.536Z,99.90
2018-07-06T11:15:58.962Z,99.90
2018-07-06T11:18:29.733Z,99.90
2018-07-06T11:21:01.242Z,99.90
2018-07-06T11:23:31.726Z,99.90
2018-07-06T11:26:02.900Z,99.90
2018-07-06T11:28:33.525Z,99.90
2018-07-06T11:31:03.959Z,99.90
2018-07-06T11:33:34.725Z,99.90
2018-07-06T11:36:05.192Z,99.90
2018-07-06T11:38:35.907Z,99.90
2018-07-06T11:41:06.522Z,99.90
2018-07-06T11:43:37.038Z,99.90
2018-07-06T11:48:37.673Z,99.90
2018-07-06T11:51:08.337Z,99.90
2018-07-06T11:53:38.843Z,99.90
2018-07-06T11:56:09.418Z,99.90
2018-07-06T11:58:40.536Z,99.90
2018-07-06T12:01:11.401Z,99.90
2018-07-06T12:03:42.093Z,99.90
2018-07-06T12:06:13.361Z,99.90
2018-07-06T12:08:44.185Z,99.90
2018-07-06T12:11:15.740Z,99.90
2018-07-06T12:13:46.356Z,99.90
2018-07-06T12:16:16.978Z,99.90
2018-07-06T12:18:47.491Z,99.90
2018-07-06T12:21:18.902Z,99.90
2018-07-06T12:23:49.818Z,99.90
2018-07-06T12:26:20.512Z,99.90
2018-07-06T12:28:51.362Z,99.90
2018-07-06T12:31:22.442Z,99.90
2018-07-06T12:33:53.169Z,99.90
2018-07-06T12:36:24.449Z,99.90
2018-07-06T12:38:55.279Z,99.90
2018-07-06T12:41:25.838Z,99.90
2018-07-06T12:43:56.491Z,99.90
2018-07-06T12:46:27.135Z,99.90
2018-07-06T12:48:57.827Z,99.90
2018-07-06T12:51:28.672Z,99.90
2018-07-06T12:53:59.197Z,99.90
2018-07-06T12:56:30.100Z,99.90
2018-07-06T12:59:00.929Z,99.90
2018-07-06T13:01:31.357Z,99.90
2018-07-06T13:04:01.788Z,99.90
2018-07-06T13:06:32.288Z,99.90
2018-07-06T13:09:02.751Z,99.90
2018-07-06T13:11:33.402Z,99.90
2018-07-06T13:14:03.901Z,99.90
2018-07-06T13:16:34.313Z,99.90
2018-07-06T13:19:04.776Z,99.90
2018-07-06T13:21:35.556Z,99.90
2018-07-06T13:24:06.322Z,99.90
2018-07-06T13:26:36.765Z,99.90
2018-07-06T13:29:07.220Z,99.90
2018-07-06T13:31:37.755Z,99.90
2018-07-06T13:34:08.262Z,99.90
2018-07-06T13:36:38.720Z,99.90
2018-07-06T13:39:09.408Z,99.90
2018-07-06T13:41:42.173Z,99.90
2018-07-06T13:44:12.654Z,99.90
2018-07-06T13:46:43.241Z,99.90
2018-07-06T13:49:13.718Z,99.90
2018-07-06T13:51:45.416Z,99.90
2018-07-06T13:54:16.887Z,99.90
2018-07-06T13:56:47.353Z,99.90
2018-07-06T13:59:17.956Z,99.90
2018-07-06T14:01:48.585Z,99.90
2018-07-06T14:04:19.113Z,99.90
2018-07-06T14:06:49.657Z,99.90
2018-07-06T14:09:21.541Z,99.90
2018-07-06T14:11:52.748Z,99.90
2018-07-06T14:14:23.546Z,99.90
2018-07-06T14:16:54.231Z,99.90
2018-07-06T14:19:24.800Z,99.90
2018-07-06T14:21:55.515Z,99.90
2018-07-06T14:24:26.521Z,99.70
2018-07-06T14:26:57.006Z,97.50
2018-07-06T14:29:28.153Z,97.60
2018-07-06T14:32:00.045Z,98.10
2018-07-06T14:34:35.147Z,97.40
2018-07-06T14:37:07.484Z,96.30
2018-07-06T14:39:40.522Z,98.20
2018-07-06T14:42:11.981Z,97.30
2018-07-06T14:44:43.264Z,97.60
2018-07-06T14:47:14.356Z,97.10
2018-07-06T14:49:45.700Z,97.10
2018-07-06T14:52:16.530Z,95.50
2018-07-06T14:54:47.922Z,95.90
2018-07-06T14:57:18.360Z,94.30
2018-07-06T14:59:49.400Z,94.00
2018-07-06T15:02:20.696Z,93.50
2018-07-06T15:04:52.115Z,92.40
2018-07-06T15:07:22.864Z,94.10
2018-07-06T15:09:53.293Z,93.80
2018-07-06T15:12:24.158Z,93.50
2018-07-06T15:14:55.345Z,93.20
2018-07-06T15:17:27.277Z,94.60
2018-07-06T15:19:58.422Z,93.90
2018-07-06T15:22:29.022Z,94.00
2018-07-06T15:25:02.029Z,93.30
2018-07-06T15:27:32.994Z,93.40
2018-07-06T15:30:05.029Z,94.50
2018-07-06T15:32:36.200Z,92.70
2018-07-06T15:35:08.452Z,92.10
2018-07-06T15:37:39.052Z,92.80
2018-07-06T15:40:11.578Z,93.40
2018-07-06T15:42:42.962Z,93.50
2018-07-06T15:45:13.520Z,92.90
2018-07-06T15:47:44.049Z,93.10
2018-07-06T15:50:14.492Z,93.10
2018-07-06T15:52:46.026Z,93.60
2018-07-06T15:55:16.403Z,92.40
2018-07-06T15:57:46.885Z,93.30
2018-07-06T16:00:17.206Z,93.50
2018-07-06T16:02:47.668Z,93.80
2018-07-06T16:05:18.055Z,93.80
2018-07-06T16:07:48.503Z,94.30
2018-07-06T16:10:19.025Z,94.20
2018-07-06T16:15:19.445Z,95.40
2018-07-06T16:17:49.763Z,95.60
2018-07-06T16:20:21.168Z,95.70
2018-07-06T16:22:51.550Z,95.90
2018-07-06T16:25:21.949Z,96.00
2018-07-06T16:27:52.478Z,95.60
2018-07-06T16:30:22.875Z,95.90
2018-07-06T16:32:53.969Z,95.60
2018-07-06T16:35:24.528Z,95.70
2018-07-06T16:37:55.131Z,96.00
2018-07-06T16:40:26.121Z,96.20
2018-07-06T16:42:56.621Z,96.70
2018-07-06T16:45:27.783Z,96.20
2018-07-06T16:47:59.001Z,97.10
2018-07-06T16:50:29.356Z,97.20
2018-07-06T16:52:59.769Z,97.10
2018-07-06T16:55:30.963Z,97.10
2018-07-06T16:58:01.911Z,96.80
2018-07-06T17:00:32.630Z,97.40
2018-07-06T17:03:03.723Z,97.40
2018-07-06T17:05:34.206Z,96.80
2018-07-06T17:08:04.589Z,97.20
2018-07-06T17:10:35.003Z,97.00
2018-07-06T17:13:05.503Z,97.50
2018-07-06T17:15:35.897Z,98.00
2018-07-06T17:18:06.584Z,97.60
2018-07-06T17:20:36.997Z,95.70
2018-07-06T17:23:07.431Z,95.10
2018-07-06T17:25:37.913Z,94.30
2018-07-06T17:28:08.515Z,94.20
2018-07-06T17:30:38.939Z,93.90
2018-07-06T17:33:09.440Z,94.70
2018-07-06T17:35:39.892Z,94.90
2018-07-06T17:38:10.296Z,95.50
2018-07-06T17:40:40.931Z,95.60
2018-07-06T17:43:11.472Z,95.40
2018-07-06T17:45:44.638Z,94.30
2018-07-06T17:48:15.188Z,94.60
2018-07-06T17:50:45.604Z,95.30
2018-07-06T17:53:16.147Z,95.80
2018-07-06T17:55:46.600Z,96.00
2018-07-06T18:00:47.067Z,95.60
2018-07-06T18:03:17.533Z,95.90
2018-07-06T18:05:47.975Z,95.70
2018-07-06T18:08:18.431Z,96.60
2018-07-06T18:10:48.997Z,96.70
2018-07-06T18:13:19.401Z,96.30
2018-07-06T18:15:49.908Z,96.40
2018-07-06T18:18:20.361Z,96.90
2018-07-06T18:20:51.328Z,96.50
2018-07-06T18:23:21.840Z,97.00
2018-07-06T18:25:52.197Z,96.90
2018-07-06T18:28:22.581Z,97.90
2018-07-06T18:30:52.980Z,99.20
2018-07-06T18:33:23.465Z,99.50
2018-07-06T18:35:53.965Z,99.70
2018-07-06T18:38:24.396Z,99.70
2018-07-06T18:40:54.861Z,99.50
2018-07-06T18:43:25.421Z,99.50
2018-07-06T18:45:55.993Z,99.70
2018-07-06T18:48:26.532Z,99.80
2018-07-06T18:50:57.033Z,99.90
2018-07-06T18:53:27.569Z,99.90
2018-07-06T18:55:58.079Z,99.90
2018-07-06T18:58:29.109Z,99.90
2018-07-06T19:00:59.583Z,99.90
2018-07-06T19:03:30.289Z,99.60
2018-07-06T19:06:00.795Z,99.60
2018-07-06T19:08:43.857Z,99.90
2018-07-06T19:11:14.376Z,99.90
2018-07-06T19:13:44.756Z,99.90
2018-07-06T19:16:15.224Z,99.90
2018-07-06T19:18:46.099Z,99.90
2018-07-06T19:21:16.784Z,99.90
2018-07-06T19:23:47.165Z,99.90
2018-07-06T19:26:17.855Z,99.90
2018-07-06T19:28:48.738Z,99.90
2018-07-06T19:31:19.251Z,99.90
2018-07-06T19:33:49.685Z,99.90
2018-07-06T19:36:20.259Z,99.90
2018-07-06T19:38:51.504Z,99.90
2018-07-06T19:41:22.909Z,99.90
2018-07-06T19:43:53.404Z,99.90
2018-07-06T19:46:24.229Z,99.90
2018-07-06T19:48:55.683Z,99.90
2018-07-06T19:51:26.279Z,99.90
2018-07-06T19:53:56.945Z,99.90
2018-07-06T19:56:27.713Z,99.90
2018-07-06T19:58:59.199Z,99.90
2018-07-06T20:01:29.740Z,99.90
2018-07-06T20:04:00.345Z,99.90
2018-07-06T20:06:30.799Z,99.90
2018-07-06T20:09:01.321Z,99.90
2018-07-06T20:11:33.733Z,99.90
2018-07-06T20:14:04.364Z,99.90
2018-07-06T20:16:35.305Z,99.90
2018-07-06T20:19:05.861Z,99.90
2018-07-06T20:21:36.418Z,99.90
2018-07-06T20:24:06.963Z,99.90
2018-07-06T20:26:38.549Z,99.90
2018-07-06T20:29:09.020Z,99.90
2018-07-06T20:31:39.797Z,99.90
2018-07-06T20:34:10.264Z,99.90
2018-07-06T20:36:40.793Z,99.90
2018-07-06T20:39:11.182Z,99.90
2018-07-06T20:41:41.619Z,99.90
2018-07-06T20:44:12.135Z,99.90
2018-07-06T20:46:43.277Z,99.90
2018-07-06T20:49:13.817Z,99.90
2018-07-06T20:51:44.234Z,99.90
2018-07-06T20:54:14.695Z,99.90
2018-07-06T20:56:45.938Z,99.90
2018-07-06T20:59:16.307Z,99.90
2018-07-06T21:01:46.745Z,99.90
2018-07-06T21:04:17.243Z,99.90
2018-07-06T21:06:47.698Z,99.90
2018-07-06T21:09:18.158Z,99.90
2018-07-06T21:14:19.416Z,99.90
2018-07-06T21:16:49.778Z,99.90
2018-07-06T21:19:20.265Z,99.90
2018-07-06T21:21:50.673Z,99.90
2018-07-06T21:24:21.156Z,99.90
2018-07-06T21:26:51.589Z,99.90
2018-07-06T21:29:22.003Z,99.90
2018-07-06T21:31:52.401Z,99.90
2018-07-06T21:34:22.792Z,99.90
2018-07-06T21:36:53.249Z,99.90
2018-07-06T21:39:23.732Z,99.90
2018-07-06T21:41:54.197Z,99.90
2018-07-06T21:44:24.617Z,99.90
2018-07-06T21:46:55.056Z,99.90
2018-07-06T21:49:25.538Z,99.90
2018-07-06T21:51:56.561Z,99.90
2018-07-06T21:54:27.049Z,99.90
2018-07-06T21:56:57.400Z,99.90
2018-07-06T21:59:27.862Z,99.90
2018-07-06T22:01:58.281Z,99.90
2018-07-06T22:04:28.757Z,99.90
2018-07-06T22:06:59.157Z,99.90
2018-07-06T22:09:29.582Z,99.90
2018-07-06T22:12:00.382Z,99.90
2018-07-06T22:14:30.866Z,99.90
2018-07-06T22:17:01.246Z,99.90
2018-07-06T22:19:31.786Z,99.90
2018-07-06T22:22:02.261Z,99.90
2018-07-06T22:24:32.724Z,99.90
2018-07-06T22:27:03.062Z,99.90
2018-07-06T22:29:33.556Z,99.90
2018-07-06T22:32:04.861Z,99.90
2018-07-06T22:34:35.300Z,99.90
2018-07-06T22:37:05.774Z,99.90
2018-07-06T22:39:36.232Z,99.90
2018-07-06T22:42:06.682Z,99.90
2018-07-06T22:44:37.086Z,99.90
2018-07-06T22:47:08.139Z,99.90
2018-07-06T22:49:38.624Z,99.90
2018-07-06T22:52:09.089Z,99.90
2018-07-06T22:54:39.603Z,99.90
2018-07-06T22:57:10.037Z,99.90
2018-07-06T22:59:40.493Z,99.90
2018-07-06T23:02:10.914Z,99.90
2018-07-06T23:04:41.364Z,99.90
2018-07-06T23:07:11.737Z,99.90
2018-07-06T23:09:42.095Z,99.90
2018-07-06T23:12:12.509Z,99.90
2018-07-06T23:14:43.599Z,99.90
2018-07-06T23:17:14.082Z,99.90
2018-07-06T23:19:44.479Z,99.90
2018-07-06T23:22:25.509Z,99.90
2018-07-06T23:24:56.037Z,99.90
2018-07-06T23:27:26.522Z,99.90
2018-07-06T23:29:56.954Z,99.90
2018-07-06T23:32:27.458Z,99.90
2018-07-06T23:34:58.529Z,99.90
2018-07-06T23:37:29.419Z,99.90
2018-07-06T23:39:59.792Z,99.90
2018-07-06T23:42:30.276Z,99.90
2018-07-06T23:45:00.709Z,99.90
2018-07-06T23:47:31.234Z,99.90
2018-07-06T23:50:02.553Z,99.90
2018-07-06T23:52:33.074Z,99.90
2018-07-06T23:55:03.722Z,99.90
2018-07-06T23:57:34.378Z,99.90
